createdAt,value
2024-02-17T00:00:07.241Z,4.15
2024-02-17T00:01:10.683Z,4.60
2024-02-17T00:02:12.713Z,3.00
2024-02-17T00:03:18.762Z,3.53
2024-02-17T00:04:21.781Z,3.45
2024-02-17T00:05:23.767Z,5.35
2024-02-17T00:06:26.731Z,3.88
2024-02-17T00:07:28.761Z,3.58
2024-02-17T00:08:31.888Z,2.95
2024-02-17T00:09:33.745Z,4.72
2024-02-17T00:10:36.742Z,3.35
2024-02-17T00:11:39.058Z,3.55
2024-02-17T00:12:41.929Z,4.85
2024-02-17T00:13:45.825Z,3.00
2024-02-17T00:14:47.776Z,4.00
2024-02-17T00:15:50.735Z,4.95
2024-02-17T00:16:52.951Z,3.58
2024-02-17T00:17:55.881Z,3.65
2024-02-17T00:18:59.213Z,3.72
2024-02-17T00:20:02.585Z,3.63
2024-02-17T00:21:05.368Z,3.22
2024-02-17T00:22:08.640Z,3.50
2024-02-17T00:23:10.496Z,4.40
2024-02-17T00:24:13.551Z,3.72
2024-02-17T00:25:15.887Z,3.67
2024-02-17T00:26:19.528Z,3.00
2024-02-17T00:27:21.495Z,4.03
2024-02-17T00:28:27.605Z,4.75
2024-02-17T00:29:30.532Z,6.45
2024-02-17T00:30:32.481Z,3.33
2024-02-17T00:31:35.806Z,4.13
2024-02-17T00:32:37.743Z,3.38
2024-02-17T00:33:40.840Z,3.70
2024-02-17T00:34:44.212Z,3.83
2024-02-17T00:35:46.087Z,4.00
2024-02-17T00:36:48.971Z,4.00
2024-02-17T00:37:50.800Z,4.03
2024-02-17T00:38:53.750Z,3.25
2024-02-17T00:39:56.360Z,5.07
2024-02-17T00:40:59.420Z,4.60
2024-02-17T00:42:01.390Z,3.47
2024-02-17T00:43:04.597Z,3.45
2024-02-17T00:44:06.633Z,4.10
2024-02-17T00:45:10.427Z,3.60
2024-02-17T00:46:12.521Z,3.28
2024-02-17T00:47:15.403Z,4.40
2024-02-17T00:48:17.848Z,6.65
2024-02-17T00:49:21.063Z,5.93
2024-02-17T00:50:24.850Z,3.88
2024-02-17T00:51:26.879Z,4.22
2024-02-17T00:52:29.758Z,3.67
2024-02-17T00:53:31.663Z,3.97
2024-02-17T00:54:34.655Z,4.97
2024-02-17T00:55:36.613Z,4.30
2024-02-17T00:56:39.450Z,4.95
2024-02-17T00:57:41.292Z,5.25
2024-02-17T00:58:43.292Z,3.05
2024-02-17T00:59:46.182Z,4.15
2024-02-17T01:00:48.447Z,3.28
2024-02-17T01:01:51.404Z,3.42
2024-02-17T01:02:53.268Z,4.70
2024-02-17T01:03:56.464Z,4.38
2024-02-17T01:04:58.756Z,3.28
2024-02-17T01:06:04.368Z,3.00
2024-02-17T01:07:06.533Z,3.53
2024-02-17T01:08:10.493Z,4.43
2024-02-17T01:09:12.465Z,3.45
2024-02-17T01:10:15.823Z,4.78
2024-02-17T01:11:19.643Z,3.38
2024-02-17T01:12:22.842Z,4.65
2024-02-17T01:13:24.768Z,3.33
2024-02-17T01:14:27.809Z,3.45
2024-02-17T01:15:29.771Z,3.97
2024-02-17T01:16:32.809Z,6.57
2024-02-17T01:17:34.771Z,3.72
2024-02-17T01:18:37.883Z,2.97
2024-02-17T01:19:40.022Z,3.60
2024-02-17T01:20:42.964Z,2.95
2024-02-17T01:21:46.352Z,3.88
2024-02-17T01:22:49.451Z,3.20
2024-02-17T01:23:51.540Z,3.42
2024-02-17T01:24:54.459Z,3.05
2024-02-17T01:25:56.674Z,2.50
2024-02-17T01:26:59.738Z,2.88
2024-02-17T01:28:01.683Z,3.08
2024-02-17T01:29:04.787Z,2.47
2024-02-17T01:30:07.890Z,2.92
2024-02-17T01:31:10.727Z,3.20
2024-02-17T01:32:12.577Z,3.28
2024-02-17T01:33:14.664Z,3.47
2024-02-17T01:34:17.670Z,3.85
2024-02-17T01:35:19.806Z,4.35
2024-02-17T01:36:22.869Z,5.57
2024-02-17T01:37:26.166Z,2.85
2024-02-17T01:38:29.029Z,3.42
2024-02-17T01:39:30.967Z,3.85
2024-02-17T01:40:33.837Z,3.90
2024-02-17T01:41:35.772Z,3.83
2024-02-17T01:42:38.745Z,3.28
2024-02-17T01:43:40.645Z,3.65
2024-02-17T01:44:43.505Z,2.80
2024-02-17T01:45:47.640Z,3.50
2024-02-17T01:46:53.267Z,4.22
2024-02-17T01:47:55.886Z,6.47
2024-02-17T01:48:58.888Z,3.20
2024-02-17T01:50:01.010Z,4.07
2024-02-17T01:51:06.497Z,3.55
2024-02-17T01:52:09.695Z,3.75
2024-02-17T01:53:14.123Z,3.17
2024-02-17T01:54:17.901Z,4.93
2024-02-17T01:55:21.075Z,3.75
2024-02-17T01:56:23.539Z,2.75
2024-02-17T01:57:26.445Z,3.20
2024-02-17T01:58:28.974Z,2.55
2024-02-17T01:59:32.149Z,4.38
2024-02-17T02:00:34.544Z,3.00
2024-02-17T02:01:39.196Z,2.67
2024-02-17T02:02:44.564Z,3.00
2024-02-17T02:03:47.641Z,2.65
2024-02-17T02:04:50.530Z,5.40
2024-02-17T02:05:53.576Z,3.50
2024-02-17T02:06:55.652Z,3.67
2024-02-17T02:07:58.825Z,3.47
2024-02-17T02:09:02.289Z,2.65
2024-02-17T02:10:05.425Z,2.80
2024-02-17T02:11:08.618Z,3.42
2024-02-17T02:12:10.905Z,4.05
2024-02-17T02:13:13.970Z,3.33
2024-02-17T02:14:17.152Z,2.97
2024-02-17T02:15:22.561Z,4.65
2024-02-17T02:16:24.703Z,4.50
2024-02-17T02:17:27.795Z,4.32
2024-02-17T02:18:29.937Z,3.25
2024-02-17T02:19:33.128Z,3.38
2024-02-17T02:20:35.248Z,4.00
2024-02-17T02:21:39.521Z,2.72
2024-02-17T02:22:43.108Z,2.75
2024-02-17T02:23:47.772Z,5.90
2024-02-17T02:24:55.457Z,3.65
2024-02-17T02:25:59.910Z,3.22
2024-02-17T02:27:01.854Z,3.20
2024-02-17T02:28:05.281Z,4.10
2024-02-17T02:29:07.207Z,3.28
2024-02-17T02:30:10.457Z,2.80
2024-02-17T02:31:13.486Z,2.60
2024-02-17T02:32:15.387Z,2.72
2024-02-17T02:33:18.750Z,4.03
2024-02-17T02:34:20.969Z,3.80
2024-02-17T02:35:23.963Z,3.35
2024-02-17T02:36:26.262Z,3.75
2024-02-17T02:37:28.587Z,3.85
2024-02-17T02:38:31.471Z,3.80
2024-02-17T02:39:33.472Z,3.75
2024-02-17T02:40:36.462Z,2.60
2024-02-17T02:41:39.739Z,2.97
2024-02-17T02:42:42.792Z,2.67
2024-02-17T02:43:45.542Z,2.75
2024-02-17T02:44:48.435Z,3.03
2024-02-17T02:45:50.480Z,3.72
2024-02-17T02:46:53.525Z,3.67
2024-02-17T02:47:55.644Z,4.97
2024-02-17T02:48:58.790Z,2.88
2024-02-17T02:50:01.197Z,3.22
2024-02-17T02:51:05.022Z,2.85
2024-02-17T02:52:07.050Z,3.20
2024-02-17T02:53:10.572Z,3.15
2024-02-17T02:54:12.682Z,3.35
2024-02-17T02:55:15.739Z,2.60
2024-02-17T02:56:17.772Z,3.03
2024-02-17T02:57:22.633Z,2.88
2024-02-17T02:58:24.642Z,4.38
2024-02-17T02:59:27.588Z,2.75
2024-02-17T03:00:29.512Z,3.33
2024-02-17T03:01:32.582Z,2.90
2024-02-17T03:02:34.638Z,3.30
2024-02-17T03:03:37.675Z,5.32
2024-02-17T03:04:39.701Z,5.78
2024-02-17T03:05:42.736Z,2.65
2024-02-17T03:06:44.839Z,3.72
2024-02-17T03:07:46.754Z,3.33
2024-02-17T03:08:49.756Z,2.80
2024-02-17T03:09:51.909Z,3.00
2024-02-17T03:10:54.074Z,3.30
2024-02-17T03:11:57.014Z,3.67
2024-02-17T03:13:00.704Z,2.50
2024-02-17T03:14:03.646Z,3.20
2024-02-17T03:15:06.715Z,3.58
2024-02-17T03:16:09.666Z,2.95
2024-02-17T03:17:11.783Z,2.80
2024-02-17T03:18:14.925Z,3.20
2024-02-17T03:19:17.091Z,2.63
2024-02-17T03:20:20.274Z,3.17
2024-02-17T03:21:24.487Z,2.72
2024-02-17T03:22:27.753Z,2.47
2024-02-17T03:23:29.748Z,2.40
2024-02-17T03:24:32.812Z,3.08
2024-02-17T03:25:34.743Z,2.88
2024-02-17T03:26:37.910Z,2.40
2024-02-17T03:27:40.285Z,2.20
2024-02-17T03:28:44.549Z,4.45
2024-02-17T03:29:46.419Z,3.83
2024-02-17T03:30:49.817Z,3.60
2024-02-17T03:31:51.787Z,2.33
2024-02-17T03:32:55.977Z,3.25
2024-02-17T03:34:00.340Z,2.10
2024-02-17T03:35:05.292Z,3.00
2024-02-17T03:36:07.667Z,3.35
2024-02-17T03:37:09.721Z,3.70
2024-02-17T03:38:12.622Z,3.88
2024-02-17T03:39:16.575Z,5.72
2024-02-17T03:40:22.115Z,3.30
2024-02-17T03:41:24.763Z,3.28
2024-02-17T03:42:27.775Z,3.13
2024-02-17T03:43:30.286Z,2.88
2024-02-17T03:44:34.884Z,2.85
2024-02-17T03:45:36.881Z,2.90
2024-02-17T03:46:38.832Z,2.42
2024-02-17T03:47:41.816Z,3.45
2024-02-17T03:48:43.891Z,2.75
2024-02-17T03:49:47.041Z,4.03
2024-02-17T03:50:51.460Z,3.28
2024-02-17T03:51:53.406Z,2.60
2024-02-17T03:52:56.423Z,3.22
2024-02-17T03:53:58.306Z,3.28
2024-02-17T03:55:01.124Z,2.72
2024-02-17T03:56:03.276Z,3.17
2024-02-17T03:57:06.428Z,3.25
2024-02-17T03:58:08.353Z,3.03
2024-02-17T03:59:10.238Z,3.13
2024-02-17T04:00:15.423Z,3.22
2024-02-17T04:01:17.540Z,3.35
2024-02-17T04:02:20.425Z,5.45
2024-02-17T04:03:22.301Z,2.60
2024-02-17T04:04:25.218Z,3.22
2024-02-17T04:05:27.246Z,3.58
2024-02-17T04:06:30.222Z,5.15
2024-02-17T04:07:32.254Z,2.25
2024-02-17T04:08:35.149Z,3.25
2024-02-17T04:09:37.325Z,3.00
2024-02-17T04:10:40.786Z,3.22
2024-02-17T04:11:42.992Z,2.55
2024-02-17T04:12:46.040Z,3.17
2024-02-17T04:13:47.987Z,2.28
2024-02-17T04:14:51.015Z,4.10
2024-02-17T04:15:54.714Z,3.35
2024-02-17T04:16:57.649Z,4.15
2024-02-17T04:18:01.657Z,2.58
2024-02-17T04:19:03.800Z,2.90
2024-02-17T04:20:08.429Z,5.15
2024-02-17T04:21:10.615Z,3.05
2024-02-17T04:22:13.548Z,3.05
2024-02-17T04:23:15.529Z,2.88
2024-02-17T04:24:18.403Z,3.67
2024-02-17T04:25:20.392Z,4.45
2024-02-17T04:26:23.294Z,2.90
2024-02-17T04:27:25.432Z,2.58
2024-02-17T04:28:28.416Z,3.80
2024-02-17T04:29:30.335Z,3.45
2024-02-17T04:30:33.349Z,3.10
2024-02-17T04:31:36.789Z,2.60
2024-02-17T04:32:39.692Z,2.63
2024-02-17T04:33:41.848Z,3.10
2024-02-17T04:34:44.963Z,3.30
2024-02-17T04:35:47.077Z,3.97
2024-02-17T04:36:50.345Z,2.85
2024-02-17T04:37:52.597Z,2.95
2024-02-17T04:38:55.507Z,4.55
2024-02-17T04:39:57.713Z,6.78
2024-02-17T04:41:00.571Z,3.78
2024-02-17T04:42:03.660Z,3.05
2024-02-17T04:43:05.661Z,3.42
2024-02-17T04:44:08.618Z,4.25
2024-02-17T04:45:11.541Z,3.75
2024-02-17T04:46:14.748Z,3.00
2024-02-17T04:47:17.969Z,3.40
2024-02-17T04:48:21.077Z,2.80
2024-02-17T04:49:23.077Z,3.60
2024-02-17T04:50:25.970Z,3.38
2024-02-17T04:51:27.998Z,3.10
2024-02-17T04:52:30.847Z,2.80
2024-02-17T04:53:32.739Z,2.97
2024-02-17T04:54:35.708Z,3.53
2024-02-17T04:55:37.724Z,2.40
2024-02-17T04:56:39.659Z,5.63
2024-02-17T04:57:42.897Z,3.13
2024-02-17T04:58:47.673Z,3.97
2024-02-17T04:59:50.516Z,2.70
2024-02-17T05:00:52.416Z,2.45
2024-02-17T05:01:55.459Z,4.28
2024-02-17T05:02:58.779Z,2.95
2024-02-17T05:04:01.706Z,3.05
2024-02-17T05:05:04.652Z,2.55
2024-02-17T05:06:07.806Z,3.22
2024-02-17T05:07:12.887Z,3.10
2024-02-17T05:08:15.741Z,4.53
2024-02-17T05:09:17.712Z,3.85
2024-02-17T05:10:20.968Z,2.30
2024-02-17T05:11:23.713Z,5.85
2024-02-17T05:12:26.900Z,3.30
2024-02-17T05:13:28.969Z,2.45
2024-02-17T05:14:31.810Z,4.15
2024-02-17T05:15:33.844Z,4.88
2024-02-17T05:16:36.743Z,3.35
2024-02-17T05:17:38.622Z,3.00
2024-02-17T05:18:42.976Z,3.00
2024-02-17T05:19:45.124Z,3.03
2024-02-17T05:20:48.673Z,3.75
2024-02-17T05:21:51.141Z,2.50
2024-02-17T05:22:54.058Z,4.47
2024-02-17T05:23:55.941Z,4.05
2024-02-17T05:24:58.823Z,4.93
2024-02-17T05:26:00.720Z,2.80
2024-02-17T05:27:04.125Z,3.35
2024-02-17T05:28:06.841Z,3.47
2024-02-17T05:29:09.739Z,3.72
2024-02-17T05:30:15.293Z,2.08
2024-02-17T05:31:27.247Z,2.70
2024-02-17T05:32:30.182Z,2.92
2024-02-17T05:33:32.228Z,3.60
2024-02-17T05:34:36.900Z,2.72
2024-02-17T05:35:38.917Z,2.78
2024-02-17T05:36:41.840Z,2.55
2024-02-17T05:37:43.768Z,3.05
2024-02-17T05:38:46.946Z,3.65
2024-02-17T05:39:48.991Z,2.72
2024-02-17T05:40:51.903Z,4.93
2024-02-17T05:41:53.781Z,4.28
2024-02-17T05:42:56.634Z,3.67
2024-02-17T05:43:58.514Z,3.25
2024-02-17T05:45:02.264Z,2.60
2024-02-17T05:46:04.519Z,3.42
2024-02-17T05:47:07.699Z,2.85
2024-02-17T05:48:09.959Z,2.55
2024-02-17T05:49:12.918Z,2.63
2024-02-17T05:50:16.357Z,2.97
2024-02-17T05:51:19.433Z,4.25
2024-02-17T05:52:21.398Z,2.45
2024-02-17T05:53:24.194Z,3.15
2024-02-17T05:54:26.009Z,2.65
2024-02-17T05:55:27.903Z,4.05
2024-02-17T05:56:30.710Z,2.70
2024-02-17T05:57:32.765Z,3.20
2024-02-17T05:58:37.168Z,2.75
2024-02-17T05:59:39.055Z,3.95
2024-02-17T06:00:41.960Z,3.45
2024-02-17T06:01:44.140Z,2.60
2024-02-17T06:02:47.097Z,3.17
2024-02-17T06:03:49.065Z,2.88
2024-02-17T06:04:52.061Z,2.65
2024-02-17T06:05:55.456Z,4.78
2024-02-17T06:06:58.474Z,3.60
2024-02-17T06:08:00.567Z,5.03
2024-02-17T06:09:04.515Z,2.80
2024-02-17T06:10:07.908Z,2.55
2024-02-17T06:11:10.793Z,2.75
2024-02-17T06:12:12.683Z,2.58
2024-02-17T06:13:15.573Z,3.38
2024-02-17T06:14:17.525Z,2.50
2024-02-17T06:15:20.394Z,2.55
2024-02-17T06:16:22.345Z,3.45
2024-02-17T06:17:27.837Z,2.92
2024-02-17T06:18:48.573Z,2.05
2024-02-17T06:20:09.447Z,2.70
2024-02-17T06:21:21.330Z,1.80
2024-02-17T06:22:26.191Z,2.30
2024-02-17T06:23:28.299Z,2.67
2024-02-17T06:24:31.216Z,3.17
2024-02-17T06:25:33.729Z,2.50
2024-02-17T06:26:37.234Z,3.30
2024-02-17T06:27:39.304Z,2.85
2024-02-17T06:28:42.650Z,2.15
2024-02-17T06:29:45.429Z,2.42
2024-02-17T06:30:48.394Z,2.33
2024-02-17T06:31:50.366Z,2.50
2024-02-17T06:32:52.245Z,2.13
2024-02-17T06:33:55.345Z,3.10
2024-02-17T06:34:57.305Z,2.50
2024-02-17T06:36:00.203Z,3.00
2024-02-17T06:37:05.117Z,1.90
2024-02-17T06:38:08.043Z,2.88
2024-02-17T06:39:10.147Z,2.55
2024-02-17T06:40:12.673Z,3.13
2024-02-17T06:41:16.678Z,1.95
2024-02-17T06:42:19.035Z,2.40
2024-02-17T06:43:22.151Z,2.13
2024-02-17T06:44:26.667Z,4.30
2024-02-17T06:45:30.699Z,2.25
2024-02-17T06:46:32.706Z,2.80
2024-02-17T06:47:35.644Z,2.55
2024-02-17T06:48:38.016Z,2.05
2024-02-17T06:49:39.994Z,2.40
2024-02-17T06:50:42.939Z,2.78
2024-02-17T06:51:44.879Z,2.08
2024-02-17T06:52:51.020Z,2.35
2024-02-17T06:53:53.666Z,2.42
2024-02-17T06:54:56.492Z,2.50
2024-02-17T06:55:58.417Z,1.73
2024-02-17T06:57:01.429Z,2.45
2024-02-17T06:58:03.285Z,2.95
2024-02-17T06:59:06.146Z,1.92
2024-02-17T07:00:09.106Z,2.35
2024-02-17T07:01:12.042Z,1.88
2024-02-17T07:02:16.537Z,1.98
2024-02-17T07:03:19.619Z,2.20
2024-02-17T07:04:22.292Z,3.08
2024-02-17T07:05:25.200Z,2.25
2024-02-17T07:06:27.291Z,1.92
2024-02-17T07:07:30.247Z,2.85
2024-02-17T07:08:33.625Z,2.53
2024-02-17T07:09:36.760Z,2.40
2024-02-17T07:10:38.989Z,2.28
2024-02-17T07:11:41.897Z,2.28
2024-02-17T07:12:43.975Z,2.47
2024-02-17T07:13:46.888Z,2.40
2024-02-17T07:14:49.464Z,2.00
2024-02-17T07:15:52.475Z,2.20
2024-02-17T07:16:57.442Z,2.60
2024-02-17T07:18:02.523Z,2.40
2024-02-17T07:19:04.759Z,2.35
2024-02-17T07:20:09.537Z,2.60
2024-02-17T07:21:12.227Z,2.00
2024-02-17T07:22:15.212Z,2.30
2024-02-17T07:23:18.538Z,2.33
2024-02-17T07:24:22.839Z,2.38
2024-02-17T07:25:25.243Z,2.72
2024-02-17T07:26:28.136Z,2.85
2024-02-17T07:27:30.143Z,2.28
2024-02-17T07:28:38.175Z,2.20
2024-02-17T07:29:40.249Z,1.77
2024-02-17T07:30:43.764Z,1.80
2024-02-17T07:31:45.781Z,2.08
2024-02-17T07:32:47.818Z,2.33
2024-02-17T07:33:53.493Z,1.83
2024-02-17T07:34:55.558Z,3.08
2024-02-17T07:35:58.620Z,2.30
2024-02-17T07:37:00.542Z,2.38
2024-02-17T07:38:02.626Z,3.15
2024-02-17T07:39:06.669Z,2.67
2024-02-17T07:40:11.460Z,3.25
2024-02-17T07:41:14.296Z,1.85
2024-02-17T07:42:16.256Z,2.00
2024-02-17T07:43:21.308Z,3.35
2024-02-17T07:44:24.896Z,2.85
2024-02-17T07:45:27.524Z,2.22
2024-02-17T07:46:30.420Z,1.92
2024-02-17T07:47:33.453Z,2.50
2024-02-17T07:48:36.555Z,2.35
2024-02-17T07:49:38.583Z,2.20
2024-02-17T07:50:40.554Z,2.33
2024-02-17T07:51:45.027Z,2.50
2024-02-17T07:52:46.941Z,2.22
2024-02-17T07:53:49.875Z,2.30
2024-02-17T07:54:52.046Z,2.55
2024-02-17T07:55:56.275Z,2.50
2024-02-17T07:56:58.631Z,1.92
2024-02-17T07:58:01.663Z,2.75
2024-02-17T07:59:04.372Z,3.03
2024-02-17T08:00:09.884Z,3.78
2024-02-17T08:01:14.500Z,3.35
2024-02-17T08:02:17.508Z,2.53
2024-02-17T08:03:19.659Z,1.92
2024-02-17T08:04:22.855Z,3.55
2024-02-17T08:05:24.907Z,2.35
2024-02-17T08:06:27.885Z,4.03
2024-02-17T08:07:29.848Z,3.95
2024-02-17T08:08:33.679Z,3.03
2024-02-17T08:09:35.672Z,1.95
2024-02-17T08:10:38.647Z,2.30
2024-02-17T08:11:42.438Z,2.28
2024-02-17T08:12:45.419Z,2.75
2024-02-17T08:13:47.474Z,2.42
2024-02-17T08:14:53.657Z,3.15
2024-02-17T08:15:55.800Z,3.25
2024-02-17T08:16:58.789Z,3.40
2024-02-17T08:18:00.865Z,4.85
2024-02-17T08:19:04.336Z,2.88
2024-02-17T08:20:07.263Z,2.65
2024-02-17T08:21:10.303Z,3.10
2024-02-17T08:22:12.480Z,2.45
2024-02-17T08:23:17.810Z,3.80
2024-02-17T08:24:19.908Z,2.53
2024-02-17T08:25:23.023Z,2.80
2024-02-17T08:26:24.880Z,3.22
2024-02-17T08:27:29.330Z,2.88
2024-02-17T08:28:31.290Z,3.50
2024-02-17T08:29:35.120Z,3.70
2024-02-17T08:30:38.153Z,2.65
2024-02-17T08:31:40.108Z,2.83
2024-02-17T08:32:43.397Z,3.10
2024-02-17T08:33:45.498Z,2.80
2024-02-17T08:34:50.155Z,2.60
2024-02-17T08:35:52.453Z,2.50
2024-02-17T08:36:55.388Z,3.00
2024-02-17T08:37:57.287Z,3.03
2024-02-17T08:39:00.756Z,2.70
2024-02-17T08:40:02.915Z,3.17
2024-02-17T08:41:06.229Z,2.97
2024-02-17T08:42:08.264Z,4.80
2024-02-17T08:43:13.290Z,4.10
2024-02-17T08:44:15.170Z,2.70
2024-02-17T08:45:18.043Z,3.50
2024-02-17T08:46:19.960Z,2.47
2024-02-17T08:47:23.587Z,4.20
2024-02-17T08:48:28.021Z,3.17
2024-02-17T08:49:33.538Z,2.55
2024-02-17T08:50:35.496Z,3.83
2024-02-17T08:51:41.724Z,4.00
2024-02-17T08:52:43.748Z,4.20
2024-02-17T08:53:46.691Z,2.75
2024-02-17T08:54:48.859Z,3.08
2024-02-17T08:55:51.873Z,4.40
2024-02-17T08:56:54.941Z,2.53
2024-02-17T08:57:57.804Z,2.85
2024-02-17T08:59:01.028Z,3.20
2024-02-17T09:00:06.499Z,3.95
2024-02-17T09:01:08.713Z,4.03
2024-02-17T09:02:18.031Z,3.00
2024-02-17T09:03:20.132Z,3.60
2024-02-17T09:04:23.211Z,2.33
2024-02-17T09:05:25.439Z,2.70
2024-02-17T09:06:27.634Z,2.83
2024-02-17T09:07:30.648Z,3.00
2024-02-17T09:08:32.577Z,2.97
2024-02-17T09:09:35.527Z,4.18
2024-02-17T09:10:37.382Z,3.65
2024-02-17T09:11:40.760Z,4.70
2024-02-17T09:12:42.898Z,2.63
2024-02-17T09:13:48.657Z,2.50
2024-02-17T09:14:51.929Z,3.63
2024-02-17T09:15:53.981Z,3.75
2024-02-17T09:16:56.826Z,4.10
2024-02-17T09:18:00.398Z,2.75
2024-02-17T09:19:03.419Z,3.28
2024-02-17T09:20:06.937Z,3.83
2024-02-17T09:21:10.068Z,3.38
2024-02-17T09:22:12.485Z,3.83
2024-02-17T09:23:14.375Z,3.40
2024-02-17T09:24:20.457Z,3.33
2024-02-17T09:25:22.600Z,4.63
2024-02-17T09:26:25.666Z,3.22
2024-02-17T09:27:27.582Z,2.63
2024-02-17T09:28:30.455Z,3.60
2024-02-17T09:29:33.296Z,4.50
2024-02-17T09:30:39.477Z,4.10
2024-02-17T09:31:42.500Z,4.03
2024-02-17T09:32:45.447Z,3.55
2024-02-17T09:33:47.480Z,3.40
2024-02-17T09:34:50.548Z,3.47
2024-02-17T09:35:52.469Z,3.63
2024-02-17T09:36:54.460Z,4.57
2024-02-17T09:37:57.365Z,4.07
2024-02-17T09:38:59.342Z,3.15
2024-02-17T09:40:03.361Z,4.00
2024-02-17T09:41:05.922Z,4.18
2024-02-17T09:42:09.289Z,3.28
2024-02-17T09:43:11.288Z,4.60
2024-02-17T09:44:14.210Z,3.97
2024-02-17T09:45:17.118Z,4.18
2024-02-17T09:46:22.839Z,4.35
2024-02-17T09:47:26.529Z,6.18
2024-02-17T09:48:30.242Z,5.57
2024-02-17T09:49:36.656Z,7.00
2024-02-17T09:50:42.018Z,4.63
2024-02-17T09:51:46.736Z,4.55
2024-02-17T09:52:50.717Z,6.05
2024-02-17T09:53:54.112Z,4.72
2024-02-17T09:54:58.654Z,3.92
2024-02-17T09:56:01.117Z,5.85
2024-02-17T09:57:05.604Z,3.50
2024-02-17T09:58:07.567Z,4.40
2024-02-17T09:59:10.476Z,4.85
2024-02-17T10:00:15.300Z,4.50
2024-02-17T10:01:17.621Z,5.55
2024-02-17T10:02:22.056Z,4.70
2024-02-17T10:03:25.998Z,5.45
2024-02-17T10:04:29.109Z,5.38
2024-02-17T10:05:32.645Z,7.13
2024-02-17T10:06:36.482Z,3.88
2024-02-17T10:07:56.660Z,4.53
2024-02-17T10:09:00.504Z,5.00
2024-02-17T10:10:02.879Z,5.20
2024-02-17T10:11:07.999Z,5.57
2024-02-17T10:12:11.604Z,4.97
2024-02-17T10:13:18.682Z,5.18
2024-02-17T10:14:23.998Z,4.00
2024-02-17T10:15:28.439Z,6.13
2024-02-17T10:16:31.901Z,8.10
2024-02-17T10:17:36.130Z,4.03
2024-02-17T10:18:40.668Z,7.35
2024-02-17T10:19:43.793Z,6.60
2024-02-17T10:20:46.550Z,6.50
2024-02-17T10:21:50.041Z,5.75
2024-02-17T10:22:54.443Z,5.28
2024-02-17T10:23:57.766Z,5.75
2024-02-17T10:25:00.652Z,5.35
2024-02-17T10:26:03.891Z,6.00
2024-02-17T10:27:06.920Z,6.82
2024-02-17T10:28:09.918Z,5.43
2024-02-17T10:29:16.748Z,4.05
2024-02-17T10:30:21.740Z,5.43
2024-02-17T10:31:24.416Z,6.13
2024-02-17T10:32:27.311Z,5.28
2024-02-17T10:33:30.736Z,7.82
2024-02-17T10:34:34.623Z,5.55
2024-02-17T10:35:38.052Z,8.07
2024-02-17T10:36:42.846Z,6.05
2024-02-17T10:37:49.703Z,7.03
2024-02-17T10:38:55.341Z,4.63
2024-02-17T10:39:59.470Z,6.78
2024-02-17T10:41:02.449Z,6.20
2024-02-17T10:42:04.967Z,6.28
2024-02-17T10:43:07.924Z,6.72
2024-02-17T10:44:11.528Z,5.55
2024-02-17T10:45:15.191Z,6.05
2024-02-17T10:46:19.559Z,6.13
2024-02-17T10:47:27.784Z,7.40
2024-02-17T10:48:31.432Z,5.65
2024-02-17T10:49:42.833Z,7.35
2024-02-17T10:50:46.793Z,4.93
2024-02-17T10:51:56.331Z,7.47
2024-02-17T10:53:02.633Z,5.68
2024-02-17T10:54:08.443Z,8.27
2024-02-17T10:55:12.775Z,5.13
2024-02-17T10:56:18.782Z,6.63
2024-02-17T10:57:23.352Z,6.75
2024-02-17T10:58:26.536Z,7.47
2024-02-17T10:59:31.080Z,7.72
2024-02-17T11:00:35.890Z,6.45
2024-02-17T11:01:38.526Z,7.70
2024-02-17T11:02:44.359Z,6.60
2024-02-17T11:03:48.449Z,6.25
2024-02-17T11:04:52.183Z,7.78
2024-02-17T11:05:58.261Z,10.90
2024-02-17T11:07:02.003Z,8.75
2024-02-17T11:08:05.425Z,6.70
2024-02-17T11:09:09.897Z,6.05
2024-02-17T11:10:14.124Z,6.32
2024-02-17T11:11:27.300Z,5.85
2024-02-17T11:12:33.996Z,7.25
2024-02-17T11:13:37.202Z,6.13
2024-02-17T11:14:40.297Z,7.85
2024-02-17T11:16:02.391Z,6.00
2024-02-17T11:17:04.628Z,5.53
2024-02-17T11:18:08.148Z,6.18
2024-02-17T11:19:11.895Z,6.40
2024-02-17T11:20:16.002Z,7.68
2024-02-17T11:21:26.169Z,6.55
2024-02-17T11:22:28.125Z,6.15
2024-02-17T11:23:35.368Z,5.95
2024-02-17T11:24:38.942Z,6.10
2024-02-17T11:25:43.254Z,5.80
2024-02-17T11:26:46.201Z,6.25
2024-02-17T11:27:49.092Z,5.68
2024-02-17T11:28:51.067Z,6.07
2024-02-17T11:29:52.957Z,5.93
2024-02-17T11:30:57.533Z,5.22
2024-02-17T11:32:01.135Z,6.38
2024-02-17T11:33:07.063Z,7.70
2024-02-17T11:34:09.538Z,6.20
2024-02-17T11:35:15.552Z,6.60
2024-02-17T11:36:19.055Z,8.05
2024-02-17T11:37:24.137Z,5.97
2024-02-17T11:38:27.392Z,7.10
2024-02-17T11:39:33.148Z,4.75
2024-02-17T11:40:38.010Z,5.32
2024-02-17T11:41:40.888Z,4.97
2024-02-17T11:42:43.667Z,4.97
2024-02-17T11:43:47.155Z,6.13
2024-02-17T11:44:49.364Z,5.07
2024-02-17T11:45:53.083Z,7.65
2024-02-17T11:46:55.102Z,6.57
2024-02-17T11:47:58.117Z,5.38
2024-02-17T11:49:08.762Z,3.38
2024-02-17T11:50:15.421Z,6.15
2024-02-17T11:51:25.703Z,7.78
2024-02-17T11:52:34.122Z,6.40
2024-02-17T11:53:36.051Z,5.00
2024-02-17T11:54:46.464Z,6.50
2024-02-17T11:55:51.730Z,5.13
2024-02-17T11:57:04.391Z,5.93
2024-02-17T11:58:09.373Z,6.60
2024-02-17T11:59:13.429Z,4.40
2024-02-17T12:00:17.662Z,5.05
2024-02-17T12:01:21.044Z,5.05
2024-02-17T12:02:24.553Z,6.60
2024-02-17T12:03:34.103Z,9.23
2024-02-17T12:04:39.368Z,5.88
2024-02-17T12:05:43.758Z,5.55
2024-02-17T12:06:48.986Z,6.72
2024-02-17T12:07:52.074Z,5.95
2024-02-17T12:08:53.910Z,4.97
2024-02-17T12:09:57.085Z,6.07
2024-02-17T12:10:59.983Z,6.95
2024-02-17T12:12:03.578Z,5.57
2024-02-17T12:13:06.877Z,5.95
2024-02-17T12:14:10.131Z,4.93
2024-02-17T12:15:15.398Z,6.65
2024-02-17T12:16:17.372Z,6.47
2024-02-17T12:17:20.413Z,6.05
2024-02-17T12:18:51.101Z,8.05
2024-02-17T12:19:54.267Z,6.72
2024-02-17T12:20:58.278Z,4.00
2024-02-17T12:22:01.484Z,4.75
2024-02-17T12:23:04.200Z,5.20
2024-02-17T12:24:07.937Z,6.55
2024-02-17T12:25:11.373Z,6.05
2024-02-17T12:26:24.382Z,6.00
2024-02-17T12:27:35.415Z,5.25
2024-02-17T12:28:41.964Z,6.07
2024-02-17T12:29:50.455Z,6.05
2024-02-17T12:30:54.459Z,4.88
2024-02-17T12:31:56.471Z,4.50
2024-02-17T12:33:07.647Z,4.90
2024-02-17T12:34:10.118Z,5.70
2024-02-17T12:35:14.535Z,5.70
2024-02-17T12:36:19.079Z,4.82
2024-02-17T12:37:22.032Z,5.85
2024-02-17T12:38:24.845Z,4.55
2024-02-17T12:39:28.397Z,5.43
2024-02-17T12:40:30.540Z,7.53
2024-02-17T12:41:33.406Z,4.13
2024-02-17T12:42:35.256Z,7.00
2024-02-17T12:43:45.169Z,6.43
2024-02-17T12:44:51.403Z,5.15
2024-02-17T12:45:54.418Z,7.47
2024-02-17T12:46:56.535Z,7.10
2024-02-17T12:47:59.909Z,7.78
2024-02-17T12:49:02.322Z,6.05
2024-02-17T12:50:06.998Z,9.15
2024-02-17T12:51:09.037Z,6.78
2024-02-17T12:52:13.530Z,7.75
2024-02-17T12:53:16.944Z,5.43
2024-02-17T12:54:20.289Z,7.00
2024-02-17T12:55:22.244Z,6.15
2024-02-17T12:56:26.032Z,5.55
2024-02-17T12:57:28.355Z,7.63
2024-02-17T12:58:30.448Z,6.30
2024-02-17T12:59:33.507Z,6.68
2024-02-17T13:00:35.868Z,7.03
2024-02-17T13:01:38.785Z,6.35
2024-02-17T13:02:41.058Z,5.78
2024-02-17T13:03:44.092Z,8.70
2024-02-17T13:04:46.039Z,6.15
2024-02-17T13:05:48.545Z,5.28
2024-02-17T13:06:52.204Z,5.82
2024-02-17T13:07:55.814Z,6.85
2024-02-17T13:09:01.810Z,6.00
2024-02-17T13:10:05.639Z,5.82
2024-02-17T13:11:08.675Z,6.07
2024-02-17T13:12:10.624Z,6.78
2024-02-17T13:13:13.546Z,7.30
2024-02-17T13:14:16.214Z,6.63
2024-02-17T13:15:21.786Z,5.97
2024-02-17T13:16:23.846Z,4.80
2024-02-17T13:17:26.732Z,5.70
2024-02-17T13:18:28.886Z,5.43
2024-02-17T13:19:32.143Z,5.22
2024-02-17T13:20:34.238Z,5.30
2024-02-17T13:21:37.261Z,6.65
2024-02-17T13:22:39.287Z,8.93
2024-02-17T13:23:43.622Z,7.43
2024-02-17T13:24:45.585Z,4.80
2024-02-17T13:25:50.683Z,5.05
2024-02-17T13:26:52.932Z,5.47
2024-02-17T13:27:55.884Z,6.10
2024-02-17T13:28:57.912Z,6.15
2024-02-17T13:30:00.930Z,6.75
2024-02-17T13:31:03.321Z,9.10
2024-02-17T13:32:07.527Z,6.63
2024-02-17T13:33:09.553Z,6.22
2024-02-17T13:34:12.734Z,6.35
2024-02-17T13:35:16.071Z,5.65
2024-02-17T13:36:19.285Z,6.00
2024-02-17T13:37:21.724Z,5.35
2024-02-17T13:38:30.102Z,6.35
2024-02-17T13:39:34.356Z,5.07
2024-02-17T13:40:38.546Z,4.95
2024-02-17T13:41:40.773Z,7.47
2024-02-17T13:42:43.754Z,4.28
2024-02-17T13:43:49.449Z,6.03
2024-02-17T13:44:53.256Z,6.13
2024-02-17T13:45:55.166Z,5.15
2024-02-17T13:46:58.082Z,5.00
2024-02-17T13:48:00.121Z,4.95
2024-02-17T13:49:05.685Z,4.63
2024-02-17T13:50:09.175Z,6.18
2024-02-17T13:51:13.012Z,7.10
2024-02-17T13:52:15.037Z,6.40
2024-02-17T13:53:18.810Z,6.28
2024-02-17T13:54:20.781Z,5.75
2024-02-17T13:55:26.169Z,4.85
2024-02-17T13:56:28.048Z,6.25
2024-02-17T13:57:32.610Z,6.10
2024-02-17T13:58:34.839Z,6.07
2024-02-17T13:59:37.729Z,5.50
2024-02-17T14:00:41.370Z,6.50
2024-02-17T14:01:43.737Z,6.38
2024-02-17T14:02:46.917Z,7.47
2024-02-17T14:03:49.141Z,5.32